メインページ
METAR-TAF:

METAR-TAF

空港 :

ゴルガーン, イラン

緯度: 36-49N, 経度: 054-28E, 海抜: 155m

現時点の気象観測

当レポートは38分前の06:00(UTC)に作成
西/南西の風 6kt
気温 15°C
湿度 82%
気圧 1018 hPa
視程10km以上
高度2500ftの雲は散在している
高度8000ftの曇り

METAR: OING 040600Z 24006KT 9999 SCT025 OVC080 15/12 Q1018 NOSIG

時間: 11:08 (06:38 UTC)


TAF: 見つかりません

4,000以上の空港の気象観測と天気予報(METAR報とTAF報)

利用可能な観測所は地図上に黄色い丸と赤い丸で示す。

丸の上にカーソルを重ねると観測所名を参照できる。

次にクリックすると気象観測と天気予報を参照できる。

マップの切り替え:黒色「×」印の緑ボタンをクリックして拡大、「-」印の緑ボタンをクリックして縮小、緑色の三角印をクリックして隣りの地図に切り替え


METAR-TAF: